Time;durP1;ratioP1;P1;durP2;ratioP2;P2;SDS_P1;SDS_P2;PMS_P1;PMS_P2;Temp;Humidity;BMP_temperature;BMP_pressure;BME280_temperature;BME280_humidity;BME280_pressure;Samples;Min_cycle;Max_cycle;Signal;HPM_P1;HPM_P2
2021/05/31 00:02:07;;;;;;;25.43;22.47;;;12.50;99.90;;;;;;4936460;29;20464;-74
2021/05/31 00:04:35;;;;;;;31.58;26.30;;;12.40;99.90;;;;;;4936576;29;20875;-74
2021/05/31 00:07:05;;;;;;;30.50;24.43;;;12.50;99.90;;;;;;4937821;29;20197;-74
2021/05/31 00:09:35;;;;;;;30.73;23.90;;;12.50;99.90;;;;;;4937568;29;20464;-74
2021/05/31 00:12:06;;;;;;;29.53;23.80;;;12.50;99.90;;;;;;4937862;29;20558;-74
2021/05/31 00:14:34;;;;;;;28.70;24.83;;;12.40;99.90;;;;;;4936234;29;21081;-74
2021/05/31 00:17:02;;;;;;;28.73;23.10;;;12.40;99.90;;;;;;4937441;29;20450;-74
2021/05/31 00:19:30;;;;;;;29.63;24.40;;;12.40;99.90;;;;;;4936677;29;20479;-74
2021/05/31 00:21:59;;;;;;;27.80;23.33;;;12.40;99.90;;;;;;4936640;28;20807;-74
2021/05/31 00:24:26;;;;;;;28.17;24.90;;;12.40;99.90;;;;;;4936053;29;20919;-74
2021/05/31 00:26:54;;;;;;;31.20;24.53;;;12.40;99.90;;;;;;4936218;29;20451;-74
2021/05/31 00:29:24;;;;;;;32.37;26.23;;;12.40;99.90;;;;;;4937060;29;20799;-74
2021/05/31 00:31:55;;;;;;;35.87;26.10;;;12.30;99.90;;;;;;4935027;29;20508;-74
2021/05/31 00:34:22;;;;;;;32.30;26.10;;;12.30;99.90;;;;;;4937392;29;20420;-74
2021/05/31 00:36:50;;;;;;;36.67;24.50;;;12.30;99.90;;;;;;4935810;29;20456;-74
2021/05/31 00:39:20;;;;;;;37.90;28.43;;;12.30;99.90;;;;;;4935729;29;20494;-74
2021/05/31 00:41:50;;;;;;;30.97;24.67;;;12.20;99.90;;;;;;4937148;29;20474;-74
2021/05/31 00:44:18;;;;;;;35.70;24.73;;;12.20;99.90;;;;;;4936963;29;20456;-74
2021/05/31 00:46:47;;;;;;;33.77;25.70;;;12.20;99.90;;;;;;4935620;29;20815;-74
2021/05/31 00:49:17;;;;;;;30.53;25.37;;;12.20;99.90;;;;;;4936812;29;20444;-74
2021/05/31 00:51:45;;;;;;;28.53;23.30;;;12.20;99.90;;;;;;4935511;29;20476;-74
2021/05/31 00:54:33;;;;;;;29.20;23.27;;;12.20;99.90;;;;;;4936786;29;20803;-74
2021/05/31 00:57:02;;;;;;;64.67;26.20;;;12.10;99.90;;;;;;4936672;29;20462;-73
2021/05/31 00:59:29;;;;;;;41.57;25.13;;;12.10;99.90;;;;;;4936912;29;20495;-73
2021/05/31 01:01:58;;;;;;;35.30;25.97;;;12.10;99.90;;;;;;4935650;29;20910;-73
2021/05/31 01:04:26;;;;;;;39.97;25.50;;;12.10;99.90;;;;;;4935330;29;20973;-74
2021/05/31 01:07:03;;;;;;;37.03;28.17;;;12.10;99.90;;;;;;4936854;29;20805;-73
2021/05/31 01:09:45;;;;;;;37.33;26.40;;;12.00;99.90;;;;;;4935273;29;20523;-73
2021/05/31 01:12:23;;;;;;;38.20;27.20;;;12.00;99.90;;;;;;4937688;29;20558;-73
2021/05/31 01:15:01;;;;;;;40.40;27.50;;;12.00;99.90;;;;;;4935147;29;20953;-73
2021/05/31 01:17:38;;;;;;;46.93;28.10;;;12.00;99.90;;;;;;4935183;29;20444;-74
2021/05/31 01:20:24;;;;;;;42.63;29.93;;;11.90;99.90;;;;;;4935388;29;20515;-74
2021/05/31 01:22:53;;;;;;;46.53;32.10;;;11.90;99.90;;;;;;4923120;29;20449;-74
2021/05/31 01:25:38;;;;;;;53.10;32.40;;;11.90;99.90;;;;;;4936325;29;20509;-74
2021/05/31 01:28:26;;;;;;;51.30;30.47;;;11.90;99.90;;;;;;4935069;29;20447;-74
2021/05/31 01:30:57;;;;;;;48.90;33.10;;;11.90;99.90;;;;;;4934964;29;20483;-73
2021/05/31 01:33:29;;;;;;;48.80;34.85;;;11.80;99.90;;;;;;4935222;29;20463;-73
2021/05/31 01:36:00;;;;;;;50.00;34.70;;;11.90;99.90;;;;;;4936289;29;20219;-73
2021/05/31 01:38:31;;;;;;;54.23;33.00;;;11.90;99.90;;;;;;4936214;29;20452;-73
2021/05/31 01:40:59;;;;;;;47.00;33.67;;;11.80;99.90;;;;;;4934882;29;20472;-73
2021/05/31 01:43:28;;;;;;;47.60;32.00;;;11.80;99.90;;;;;;4936122;29;20519;-73
2021/05/31 01:46:00;;;;;;;46.40;33.37;;;11.70;99.90;;;;;;4934789;29;20444;-73
2021/05/31 01:48:29;;;;;;;47.47;32.87;;;11.70;99.90;;;;;;4934789;29;20462;-73
2021/05/31 01:50:59;;;;;;;46.13;31.97;;;11.70;99.90;;;;;;4935894;29;20981;-73
2021/05/31 01:53:28;;;;;;;61.43;32.33;;;11.70;99.90;;;;;;4934957;29;20531;-74
2021/05/31 01:55:56;;;;;;;43.40;30.30;;;11.70;99.90;;;;;;4929729;29;20947;-74
2021/05/31 01:58:24;;;;;;;47.17;30.90;;;11.70;99.90;;;;;;4934560;29;20547;-74
2021/05/31 02:00:53;;;;;;;48.30;28.73;;;11.60;99.90;;;;;;4934494;29;20472;-74
2021/05/31 02:03:22;;;;;;;44.43;28.43;;;11.60;99.90;;;;;;4934974;29;20444;-74
2021/05/31 02:05:49;;;;;;;40.50;29.00;;;11.60;99.90;;;;;;4935027;29;20908;-74
2021/05/31 02:08:19;;;;;;;83.70;26.80;;;11.50;99.90;;;;;;4935875;29;20452;-74
2021/05/31 02:10:47;;;;;;;37.73;24.93;;;11.50;99.90;;;;;;4934554;29;20482;-74
2021/05/31 02:13:16;;;;;;;35.27;22.57;;;11.50;99.90;;;;;;4935775;29;20527;-74
2021/05/31 02:15:53;;;;;;;43.67;24.87;;;11.50;99.90;;;;;;4934513;29;20491;-74
2021/05/31 02:18:25;;;;;;;43.43;23.60;;;11.40;99.90;;;;;;4934566;29;20444;-74
2021/05/31 02:21:01;;;;;;;40.80;23.47;;;11.40;99.90;;;;;;4937039;29;20486;-74
2021/05/31 02:23:31;;;;;;;41.40;25.40;;;11.30;99.90;;;;;;4934495;29;21020;-73
2021/05/31 02:25:59;;;;;;;28.07;22.40;;;11.30;99.90;;;;;;4936014;29;20895;-74
2021/05/31 02:28:27;;;;;;;49.33;24.70;;;11.20;99.90;;;;;;4935735;29;20959;-74
2021/05/31 02:30:56;;;;;;;29.00;21.87;;;11.20;99.90;;;;;;4934376;29;20463;-74
2021/05/31 02:33:26;;;;;;;48.33;23.40;;;11.20;99.90;;;;;;4934623;29;20475;-74
2021/05/31 02:35:54;;;;;;;36.17;21.83;;;11.20;99.90;;;;;;4937217;29;20483;-73
2021/05/31 02:38:21;;;;;;;30.30;21.40;;;11.20;99.90;;;;;;4934598;29;20482;-74
2021/05/31 02:40:49;;;;;;;26.10;21.67;;;11.10;99.90;;;;;;4934318;29;20508;-73
2021/05/31 02:43:17;;;;;;;26.47;21.57;;;11.10;99.90;;;;;;4934450;29;20450;-73
2021/05/31 02:45:45;;;;;;;26.07;20.50;;;11.10;99.90;;;;;;4935838;29;20532;-74
2021/05/31 02:48:12;;;;;;;29.50;22.63;;;11.10;99.90;;;;;;4934298;29;20454;-74
2021/05/31 02:50:42;;;;;;;32.77;21.73;;;11.10;99.90;;;;;;4935423;29;20460;-73
2021/05/31 02:53:09;;;;;;;37.47;23.80;;;11.10;99.90;;;;;;4934199;29;21022;-74
2021/05/31 02:55:37;;;;;;;24.07;20.03;;;11.00;99.90;;;;;;4937082;29;20448;-74
2021/05/31 02:58:05;;;;;;;25.70;22.37;;;11.00;99.90;;;;;;4937668;29;20559;-73
2021/05/31 03:00:33;;;;;;;26.87;21.40;;;11.00;99.90;;;;;;4939622;29;20547;-74
2021/05/31 03:03:02;;;;;;;27.27;21.87;;;11.00;99.90;;;;;;4925218;29;20563;-73
2021/05/31 03:05:31;;;;;;;26.73;21.13;;;11.00;99.90;;;;;;4938760;29;20806;-73
2021/05/31 03:08:00;;;;;;;28.67;21.30;;;11.00;99.90;;;;;;4937586;29;20456;-73
2021/05/31 03:10:29;;;;;;;25.47;22.40;;;11.00;99.90;;;;;;4937478;29;20554;-74
2021/05/31 03:12:59;;;;;;;26.07;21.20;;;11.00;99.90;;;;;;4938856;29;20478;-74
2021/05/31 03:15:28;;;;;;;27.20;21.90;;;11.00;99.90;;;;;;4938985;29;20499;-74
2021/05/31 03:17:56;;;;;;;30.87;24.00;;;11.00;99.90;;;;;;4937198;29;20456;-74
2021/05/31 03:20:26;;;;;;;30.47;23.93;;;11.00;99.90;;;;;;4937201;29;20985;-74
2021/05/31 03:22:54;;;;;;;34.90;23.90;;;11.00;99.90;;;;;;4937466;29;20633;-74
2021/05/31 03:25:24;;;;;;;31.97;24.50;;;11.00;99.90;;;;;;4938668;29;20787;-74
2021/05/31 03:27:52;;;;;;;31.27;23.40;;;11.00;99.90;;;;;;4938644;29;20957;-73
2021/05/31 03:30:21;;;;;;;47.07;22.73;;;11.00;99.90;;;;;;4936983;29;20474;-73
2021/05/31 03:32:49;;;;;;;32.37;24.37;;;11.00;99.90;;;;;;4938127;29;20480;-73
2021/05/31 03:35:17;;;;;;;29.77;23.93;;;11.00;99.90;;;;;;4938214;29;20444;-73
2021/05/31 03:37:45;;;;;;;30.60;24.20;;;11.00;99.90;;;;;;4936576;29;20460;-73
2021/05/31 03:40:15;;;;;;;30.17;23.07;;;11.00;99.90;;;;;;4936832;29;20468;-73
2021/05/31 03:42:44;;;;;;;49.03;23.10;;;11.00;99.90;;;;;;4936733;29;20575;-73
2021/05/31 03:45:13;;;;;;;36.07;24.17;;;11.00;99.90;;;;;;4938214;29;20526;-73
2021/05/31 03:47:41;;;;;;;39.60;22.47;;;11.00;99.90;;;;;;4938044;29;20463;-73
2021/05/31 03:50:10;;;;;;;29.63;22.20;;;11.00;99.90;;;;;;4938060;29;20574;-73
2021/05/31 03:52:38;;;;;;;35.70;23.70;;;10.90;99.90;;;;;;4936494;29;20480;-73
2021/05/31 03:55:08;;;;;;;29.77;22.80;;;10.90;99.90;;;;;;4936503;29;20977;-73
2021/05/31 03:57:36;;;;;;;32.63;22.50;;;10.90;99.90;;;;;;4937651;29;20490;-73
2021/05/31 04:00:09;;;;;;;26.17;22.50;;;10.90;99.90;;;;;;4936670;29;20511;-74
2021/05/31 04:02:38;;;;;;;35.87;23.23;;;10.90;99.90;;;;;;4937050;29;20435;-73
2021/05/31 04:05:09;;;;;;;48.33;22.90;;;10.90;99.90;;;;;;4937923;29;20483;-74
2021/05/31 04:13:18;;;;;;;28.87;22.70;;;11.00;99.90;;;;;;4937512;29;20464;-74
2021/05/31 04:15:47;;;;;;;36.53;22.80;;;11.00;99.90;;;;;;4938981;29;20989;-74
2021/05/31 04:18:15;;;;;;;33.57;23.53;;;11.00;99.90;;;;;;4937314;29;20443;-74
2021/05/31 04:20:43;;;;;;;37.27;21.93;;;11.00;99.90;;;;;;4937265;29;20975;-74
2021/05/31 04:23:11;;;;;;;29.10;22.77;;;11.00;99.90;;;;;;4936168;29;20559;-74
2021/05/31 04:25:38;;;;;;;31.13;23.67;;;11.00;99.90;;;;;;4937334;29;20446;-74
2021/05/31 04:28:06;;;;;;;27.47;21.93;;;11.00;99.90;;;;;;4935993;29;20546;-74
2021/05/31 04:30:34;;;;;;;28.33;21.47;;;11.00;99.90;;;;;;4937236;29;21018;-74
2021/05/31 04:33:03;;;;;;;27.60;21.60;;;11.00;99.90;;;;;;4937072;29;20889;-74
2021/05/31 04:35:30;;;;;;;25.63;21.27;;;11.00;99.90;;;;;;4935788;29;20554;-74
2021/05/31 04:37:58;;;;;;;30.63;20.90;;;11.00;99.90;;;;;;4938466;29;20487;-74
2021/05/31 04:40:27;;;;;;;22.97;20.17;;;11.10;99.90;;;;;;4935619;29;20472;-74
2021/05/31 04:42:55;;;;;;;25.87;20.80;;;11.10;99.90;;;;;;4935792;29;20550;-74
2021/05/31 04:45:23;;;;;;;31.00;22.30;;;11.10;99.90;;;;;;4937277;29;20466;-74
2021/05/31 04:47:51;;;;;;;27.73;23.00;;;11.10;99.90;;;;;;4936883;29;20447;-74
2021/05/31 04:50:20;;;;;;;28.83;21.50;;;11.10;99.90;;;;;;4936846;29;20559;-74
2021/05/31 04:52:48;;;;;;;31.80;22.83;;;11.10;99.90;;;;;;4935562;29;20509;-74
2021/05/31 04:55:17;;;;;;;23.47;20.93;;;11.20;99.90;;;;;;4935537;29;20456;-73
2021/05/31 04:57:45;;;;;;;33.13;21.47;;;11.20;99.90;;;;;;4936825;29;20459;-74
2021/05/31 05:00:14;;;;;;;24.70;20.10;;;11.20;99.90;;;;;;4937534;29;20471;-74
2021/05/31 05:02:42;;;;;;;22.53;20.13;;;11.20;99.90;;;;;;4936621;28;20817;-74
2021/05/31 05:05:11;;;;;;;23.90;21.30;;;11.20;99.90;;;;;;4934946;29;20817;-74
2021/05/31 05:07:45;;;;;;;26.70;20.63;;;11.20;99.90;;;;;;4936009;29;20881;-74
2021/05/31 05:10:39;;;;;;;23.60;20.40;;;11.30;99.90;;;;;;4935290;29;21063;-74
2021/05/31 05:14:14;;;;;;;22.10;19.80;;;11.40;99.90;;;;;;4936788;29;20482;-74
2021/05/31 05:17:46;;;;;;;23.80;21.20;;;11.50;99.90;;;;;;4935816;29;20822;-74
2021/05/31 05:21:34;;;;;;;22.67;20.27;;;11.60;99.90;;;;;;4935272;29;20499;-74
2021/05/31 05:24:37;;;;;;;22.43;20.03;;;11.60;99.90;;;;;;4934337;29;20487;-74
2021/05/31 05:27:06;;;;;;;25.33;21.10;;;11.70;99.90;;;;;;4935057;29;20451;-74
2021/05/31 05:29:34;;;;;;;21.30;19.17;;;11.70;99.90;;;;;;4936418;29;20543;-74
2021/05/31 05:32:02;;;;;;;23.10;19.47;;;11.80;99.90;;;;;;4935001;29;20523;-74
2021/05/31 05:34:30;;;;;;;22.60;20.37;;;11.80;99.90;;;;;;4934859;29;20514;-74
2021/05/31 05:37:02;;;;;;;24.17;21.57;;;11.90;99.90;;;;;;4936482;29;20444;-71
2021/05/31 05:42:44;;;;;;;22.87;20.37;;;12.20;99.90;;;;;;4926488;28;20448;-71
2021/05/31 05:47:55;;;;;;;22.40;20.00;;;12.60;99.90;;;;;;4924023;29;21036;-73
2021/05/31 05:50:23;;;;;;;23.53;20.60;;;12.90;99.90;;;;;;4936126;29;20494;-73
2021/05/31 05:52:51;;;;;;;24.30;20.73;;;13.10;99.90;;;;;;4936236;29;20479;-72
2021/05/31 05:55:19;;;;;;;20.53;18.40;;;13.40;99.90;;;;;;4934809;29;20539;-72
2021/05/31 05:57:48;;;;;;;20.03;18.20;;;13.60;99.90;;;;;;4934635;29;20481;-72
2021/05/31 06:00:21;;;;;;;18.93;17.00;;;13.90;99.90;;;;;;4935728;29;20463;-73
2021/05/31 06:02:48;;;;;;;19.10;17.20;;;14.20;99.90;;;;;;4936336;29;20493;-73
2021/05/31 06:05:17;;;;;;;16.93;15.30;;;14.50;99.90;;;;;;4935850;29;20414;-73
2021/05/31 06:07:45;;;;;;;19.87;17.77;;;14.90;99.90;;;;;;4935919;29;20444;-73
2021/05/31 06:10:15;;;;;;;18.20;16.30;;;15.10;99.90;;;;;;4934454;29;20527;-73
2021/05/31 06:12:43;;;;;;;17.67;15.90;;;15.40;99.90;;;;;;4935792;29;20437;-73
2021/05/31 06:15:14;;;;;;;19.93;17.83;;;15.60;99.90;;;;;;4934595;29;20434;-73
2021/05/31 06:17:41;;;;;;;17.47;15.67;;;15.90;99.90;;;;;;4936420;29;20463;-73
2021/05/31 06:20:10;;;;;;;18.33;15.10;;;16.10;99.90;;;;;;4935673;29;20849;-73
2021/05/31 06:22:41;;;;;;;17.37;15.63;;;16.30;99.90;;;;;;4935784;29;20902;-74
2021/05/31 06:25:10;;;;;;;17.77;15.97;;;16.50;99.90;;;;;;4934648;29;20445;-73
2021/05/31 06:27:42;;;;;;;16.00;14.30;;;16.70;99.90;;;;;;4936416;29;20428;-73
2021/05/31 06:30:13;;;;;;;17.43;15.70;;;17.00;99.90;;;;;;4936881;29;20471;-73
2021/05/31 06:32:41;;;;;;;16.10;14.60;;;17.20;99.90;;;;;;4940084;29;20577;-73
2021/05/31 06:35:09;;;;;;;16.50;14.80;;;17.40;99.90;;;;;;4939610;29;20499;-73
2021/05/31 06:37:38;;;;;;;16.13;14.10;;;17.70;99.90;;;;;;4938071;29;20550;-74
2021/05/31 06:40:10;;;;;;;14.83;13.33;;;17.90;99.90;;;;;;4939344;29;20538;-73
2021/05/31 06:42:37;;;;;;;14.47;13.10;;;18.10;99.90;;;;;;4939335;29;20416;-74
2021/05/31 06:45:11;;;;;;;14.07;12.77;;;18.30;99.90;;;;;;4938169;29;20444;-74
2021/05/31 06:47:40;;;;;;;13.93;12.53;;;18.50;99.90;;;;;;4939775;29;20491;-74
2021/05/31 06:50:10;;;;;;;14.37;12.90;;;18.80;99.90;;;;;;4939077;29;20563;-74
2021/05/31 06:52:38;;;;;;;12.27;11.17;;;19.00;99.90;;;;;;4939596;29;20532;-74
2021/05/31 06:55:07;;;;;;;12.37;11.27;;;19.20;99.90;;;;;;4938986;29;20468;-74
2021/05/31 06:57:35;;;;;;;10.10;9.20;;;19.40;99.90;;;;;;4939044;29;20869;-74
2021/05/31 07:00:05;;;;;;;11.13;10.23;;;19.60;99.90;;;;;;4938840;29;20893;-74
2021/05/31 07:02:32;;;;;;;11.13;10.03;;;19.80;99.90;;;;;;4937620;29;20874;-74
2021/05/31 07:05:02;;;;;;;15.67;11.97;;;20.00;99.90;;;;;;4939301;29;20448;-74
2021/05/31 07:07:30;;;;;;;9.90;9.00;;;20.10;99.90;;;;;;4937503;29;21044;-74
2021/05/31 07:09:58;;;;;;;10.10;8.50;;;20.30;99.90;;;;;;4938878;29;20491;-74
2021/05/31 07:12:25;;;;;;;10.00;9.10;;;20.40;99.90;;;;;;4937605;29;20538;-75
2021/05/31 07:14:55;;;;;;;9.60;8.80;;;20.60;99.90;;;;;;4937292;29;20562;-75
2021/05/31 07:17:22;;;;;;;8.13;6.50;;;20.80;99.90;;;;;;4938160;29;20445;-74
2021/05/31 07:19:50;;;;;;;6.00;5.40;;;21.00;99.90;;;;;;4938346;29;20487;-75
2021/05/31 07:22:22;;;;;;;7.00;6.40;;;21.20;99.90;;;;;;4937277;29;20445;-75
2021/05/31 07:24:52;;;;;;;7.33;6.63;;;21.40;99.90;;;;;;4938984;29;20907;-75
2021/05/31 07:27:20;;;;;;;11.10;7.20;;;21.50;99.90;;;;;;4938737;29;20507;-75
2021/05/31 07:29:48;;;;;;;6.70;6.10;;;21.70;99.90;;;;;;4938462;29;20469;-75
2021/05/31 07:32:17;;;;;;;7.07;5.80;;;21.80;99.90;;;;;;4938550;29;20523;-73
2021/05/31 07:34:45;;;;;;;5.77;5.37;;;21.90;99.90;;;;;;4938068;29;20987;-73
2021/05/31 07:37:14;;;;;;;5.03;4.57;;;22.10;99.90;;;;;;4937101;29;20453;-73
2021/05/31 07:39:43;;;;;;;4.97;4.33;;;22.30;99.90;;;;;;4936598;29;20567;-73
2021/05/31 07:42:11;;;;;;;6.13;5.53;;;22.40;99.90;;;;;;4937046;29;20447;-73
2021/05/31 07:44:38;;;;;;;5.40;4.90;;;22.50;99.50;;;;;;4938676;29;20441;-73
2021/05/31 07:47:06;;;;;;;4.27;3.97;;;22.50;99.10;;;;;;4936884;29;20895;-73
2021/05/31 07:49:34;;;;;;;4.10;3.70;;;22.60;98.70;;;;;;4936739;29;20462;-73
2021/05/31 07:52:08;;;;;;;3.73;3.30;;;22.70;98.00;;;;;;4936664;29;20458;-73
2021/05/31 07:54:36;;;;;;;4.53;4.13;;;22.70;97.40;;;;;;4936977;29;20564;-73
2021/05/31 07:57:06;;;;;;;4.70;4.30;;;22.70;93.40;;;;;;4938090;29;20231;-73
2021/05/31 07:59:34;;;;;;;5.30;4.07;;;22.60;93.80;;;;;;4938095;29;20514;-73
2021/05/31 08:02:02;;;;;;;4.37;3.90;;;22.60;94.00;;;;;;4936668;29;20458;-73
2021/05/31 08:04:30;;;;;;;4.40;4.00;;;22.60;94.20;;;;;;4936288;29;20453;-73
2021/05/31 08:06:59;;;;;;;4.20;3.80;;;22.80;93.50;;;;;;4938496;29;20649;-73
2021/05/31 08:09:27;;;;;;;4.00;3.57;;;22.90;93.40;;;;;;4937719;29;20541;-73
2021/05/31 08:11:56;;;;;;;6.70;4.33;;;23.00;93.30;;;;;;4936427;29;20469;-73
2021/05/31 08:14:25;;;;;;;3.33;3.03;;;23.00;93.20;;;;;;4936157;29;20919;-73
2021/05/31 08:16:54;;;;;;;4.10;3.00;;;23.10;92.80;;;;;;4938080;29;20518;-73
2021/05/31 08:19:23;;;;;;;3.70;3.40;;;23.20;92.70;;;;;;4936361;29;20458;-73
2021/05/31 08:21:51;;;;;;;5.03;3.53;;;23.30;92.50;;;;;;4937515;29;20470;-73
2021/05/31 08:24:20;;;;;;;4.37;3.70;;;23.40;92.30;;;;;;4937787;29;20551;-73
2021/05/31 08:26:48;;;;;;;4.80;4.30;;;23.60;92.20;;;;;;4936268;29;20957;-73
2021/05/31 08:29:17;;;;;;;5.13;4.30;;;23.80;92.20;;;;;;4937924;29;20518;-73
2021/05/31 08:31:46;;;;;;;5.67;3.70;;;23.90;91.30;;;;;;4937424;29;20481;-73
2021/05/31 08:34:14;;;;;;;3.13;2.83;;;24.00;90.80;;;;;;4937190;29;20473;-73
2021/05/31 08:36:44;;;;;;;5.43;3.40;;;24.00;90.60;;;;;;4937198;29;20491;-73
2021/05/31 08:39:12;;;;;;;3.60;3.30;;;24.00;90.10;;;;;;4935921;29;20571;-73
2021/05/31 08:41:40;;;;;;;5.73;3.57;;;24.00;88.90;;;;;;4937509;29;20899;-73
2021/05/31 08:44:08;;;;;;;4.37;3.30;;;24.00;88.10;;;;;;4937540;29;20526;-73
2021/05/31 08:46:37;;;;;;;3.93;3.63;;;24.00;87.90;;;;;;4936966;29;21008;-73
2021/05/31 08:49:07;;;;;;;4.03;3.50;;;24.00;87.40;;;;;;4935534;29;20459;-73
2021/05/31 08:51:36;;;;;;;3.50;3.20;;;24.00;86.30;;;;;;4936643;29;20550;-73
2021/05/31 08:54:04;;;;;;;3.47;3.27;;;24.00;85.80;;;;;;4936744;29;20981;-73
2021/05/31 08:56:32;;;;;;;6.20;3.57;;;24.00;85.00;;;;;;4936976;29;20487;-73
2021/05/31 08:59:00;;;;;;;3.27;2.90;;;24.00;84.80;;;;;;4935565;29;20477;-73
2021/05/31 09:01:28;;;;;;;4.05;3.70;;;24.10;84.60;;;;;;4936341;29;20480;-73
2021/05/31 09:03:56;;;;;;;4.63;3.30;;;24.20;77.40;;;;;;4936266;29;20209;-73
2021/05/31 09:06:26;;;;;;;3.47;3.17;;;24.30;77.80;;;;;;4936392;29;21025;-74
2021/05/31 09:08:59;;;;;;;6.03;3.63;;;24.20;77.80;;;;;;4937214;29;20480;-74
2021/05/31 09:11:28;;;;;;;3.67;3.38;;;24.10;78.20;;;;;;4936431;29;20554;-74
2021/05/31 09:13:57;;;;;;;4.17;3.77;;;24.10;77.00;;;;;;4936838;29;20559;-74
2021/05/31 09:16:26;;;;;;;4.07;3.63;;;24.10;77.50;;;;;;4936369;29;20959;-74
2021/05/31 09:18:56;;;;;;;4.30;3.27;;;24.10;77.30;;;;;;4936452;29;20481;-74
2021/05/31 09:21:27;;;;;;;4.90;3.67;;;24.00;76.70;;;;;;4935063;29;20538;-74
2021/05/31 09:23:58;;;;;;;5.33;3.60;;;23.90;76.30;;;;;;4936766;29;20429;-74
2021/05/31 09:26:26;;;;;;;3.80;3.50;;;23.80;76.40;;;;;;4936405;29;20475;-74
2021/05/31 09:28:56;;;;;;;3.40;3.10;;;23.80;76.60;;;;;;4935150;29;20490;-74
2021/05/31 09:31:25;;;;;;;4.30;3.80;;;23.80;76.80;;;;;;4936321;29;20859;-74
2021/05/31 09:34:01;;;;;;;3.87;3.57;;;23.80;76.80;;;;;;4934857;29;20872;-74
2021/05/31 09:36:35;;;;;;;5.27;3.50;;;23.80;76.30;;;;;;4934942;29;20507;-74
2021/05/31 09:39:05;;;;;;;4.03;3.63;;;23.90;76.10;;;;;;4936245;29;20427;-74
2021/05/31 09:41:34;;;;;;;5.13;3.60;;;23.90;76.00;;;;;;4936464;29;20486;-74
2021/05/31 09:44:05;;;;;;;3.30;3.00;;;23.90;75.60;;;;;;4935996;29;20879;-74
2021/05/31 09:46:41;;;;;;;4.00;3.40;;;23.90;75.20;;;;;;4934920;29;20467;-74
2021/05/31 09:49:13;;;;;;;3.40;3.07;;;23.80;74.40;;;;;;4936827;29;20434;-74
2021/05/31 09:51:54;;;;;;;6.00;4.03;;;23.80;74.90;;;;;;4936071;29;20883;-74
2021/05/31 09:54:35;;;;;;;3.77;3.47;;;23.80;74.40;;;;;;4934935;29;20477;-74
2021/05/31 09:57:16;;;;;;;3.57;3.27;;;23.80;74.90;;;;;;4936213;29;20481;-74
2021/05/31 09:59:45;;;;;;;4.63;4.20;;;23.90;75.20;;;;;;4934759;29;20474;-75
2021/05/31 10:02:17;;;;;;;5.40;4.30;;;24.00;75.20;;;;;;4934777;29;20451;-74
2021/05/31 10:04:57;;;;;;;5.40;3.87;;;24.00;74.00;;;;;;4939963;29;20498;-74
2021/05/31 10:07:38;;;;;;;4.47;4.07;;;24.00;74.30;;;;;;4939939;29;20426;-74
2021/05/31 10:10:07;;;;;;;4.13;3.77;;;24.00;74.40;;;;;;4938454;29;20533;-74
2021/05/31 10:12:50;;;;;;;4.30;3.97;;;24.00;74.20;;;;;;4940088;29;20440;-74
2021/05/31 10:15:20;;;;;;;4.10;3.63;;;24.00;73.60;;;;;;4938490;29;20513;-74
2021/05/31 10:17:48;;;;;;;5.03;3.80;;;24.00;73.70;;;;;;4940055;29;20473;-74
2021/05/31 10:20:16;;;;;;;3.90;3.60;;;24.10;73.90;;;;;;4939621;29;20894;-74
2021/05/31 10:22:46;;;;;;;5.20;4.17;;;24.10;73.60;;;;;;4939616;29;20980;-73
2021/05/31 10:25:16;;;;;;;4.43;4.03;;;24.20;73.50;;;;;;4939974;29;20437;-74
2021/05/31 10:27:45;;;;;;;4.37;3.90;;;24.20;73.30;;;;;;4938248;29;20457;-75
2021/05/31 10:30:15;;;;;;;4.77;4.30;;;24.20;73.10;;;;;;4939668;29;20524;-74
2021/05/31 10:32:43;;;;;;;4.23;3.90;;;24.20;73.30;;;;;;4939705;29;20475;-74
2021/05/31 10:35:17;;;;;;;4.67;4.03;;;24.30;73.20;;;;;;4938074;29;20473;-74
2021/05/31 10:37:53;;;;;;;4.90;4.10;;;24.30;72.70;;;;;;4938156;29;20936;-74
2021/05/31 10:40:22;;;;;;;5.33;4.20;;;24.30;72.40;;;;;;4939340;29;20469;-74
2021/05/31 10:42:52;;;;;;;4.37;3.60;;;24.30;73.10;;;;;;4939325;29;20482;-74
2021/05/31 10:45:30;;;;;;;6.00;3.93;;;24.30;72.20;;;;;;4937957;29;20442;-74
2021/05/31 10:48:11;;;;;;;6.30;3.80;;;24.30;72.20;;;;;;4939477;29;20826;-74
2021/05/31 10:50:41;;;;;;;6.20;4.33;;;24.30;72.00;;;;;;4937822;29;20474;-74
2021/05/31 10:53:21;;;;;;;4.40;4.00;;;24.30;72.20;;;;;;4937829;29;20455;-74
2021/05/31 10:55:52;;;;;;;4.47;3.90;;;24.30;71.30;;;;;;4938864;29;20804;-74
2021/05/31 10:58:22;;;;;;;4.53;4.13;;;24.40;70.10;;;;;;4939171;29;20549;-74
2021/05/31 11:00:54;;;;;;;6.10;4.37;;;24.40;70.30;;;;;;4937701;29;21047;-74
2021/05/31 11:03:23;;;;;;;5.10;4.60;;;24.40;70.40;;;;;;4937767;29;20497;-74
2021/05/31 11:05:51;;;;;;;4.30;4.00;;;24.50;70.80;;;;;;4939187;29;20463;-74
2021/05/31 11:08:29;;;;;;;4.60;4.20;;;24.50;70.80;;;;;;4937092;29;21030;-74
2021/05/31 11:10:59;;;;;;;4.00;3.70;;;24.60;69.10;;;;;;4939674;29;20215;-74
2021/05/31 11:13:28;;;;;;;4.30;4.00;;;24.60;69.80;;;;;;4938674;29;20451;-74
2021/05/31 11:16:04;;;;;;;6.07;4.40;;;24.70;70.10;;;;;;4936549;29;20482;-74
2021/05/31 11:18:41;;;;;;;4.37;3.97;;;24.70;69.80;;;;;;4937384;29;20454;-74
2021/05/31 11:21:09;;;;;;;3.93;3.63;;;24.60;69.90;;;;;;4938808;29;20471;-74
2021/05/31 11:23:39;;;;;;;4.10;3.80;;;24.50;68.90;;;;;;4938575;29;21004;-74
2021/05/31 11:26:07;;;;;;;4.13;3.73;;;24.50;68.70;;;;;;4937569;29;20957;-74
2021/05/31 11:28:35;;;;;;;3.67;3.37;;;24.50;68.90;;;;;;4938458;29;20441;-74
2021/05/31 11:31:03;;;;;;;4.90;4.00;;;24.40;68.80;;;;;;4938654;29;21011;-74
2021/05/31 11:33:34;;;;;;;4.40;4.03;;;24.50;69.10;;;;;;4938571;29;20474;-74
2021/05/31 11:36:01;;;;;;;3.60;3.30;;;24.50;68.60;;;;;;4937525;29;20511;-74
2021/05/31 11:38:30;;;;;;;3.90;3.50;;;24.50;68.50;;;;;;4937026;29;20820;-74
2021/05/31 11:41:08;;;;;;;3.70;3.40;;;24.60;68.80;;;;;;4938191;29;20470;-74
2021/05/31 11:43:36;;;;;;;5.10;4.00;;;24.70;69.10;;;;;;4938446;29;20464;-73
2021/05/31 11:46:04;;;;;;;5.37;4.87;;;24.80;69.30;;;;;;4938164;29;20437;-74
2021/05/31 11:48:32;;;;;;;3.80;3.50;;;24.90;69.00;;;;;;4936876;29;20451;-74
2021/05/31 11:51:02;;;;;;;4.40;4.00;;;25.00;68.40;;;;;;4937838;29;20500;-74
2021/05/31 11:53:30;;;;;;;4.50;4.20;;;25.10;66.50;;;;;;4938004;29;20192;-73
2021/05/31 11:55:59;;;;;;;3.97;3.67;;;25.10;66.50;;;;;;4936700;29;20510;-73
2021/05/31 11:58:27;;;;;;;4.17;3.60;;;25.10;67.20;;;;;;4938139;29;20533;-74
2021/05/31 12:01:00;;;;;;;3.47;3.17;;;25.00;66.50;;;;;;4936552;29;20483;-74
2021/05/31 12:03:28;;;;;;;3.50;3.20;;;25.00;67.00;;;;;;4938186;29;20490;-73
2021/05/31 12:05:56;;;;;;;3.90;3.60;;;25.00;67.10;;;;;;4936529;29;20457;-73
2021/05/31 12:08:24;;;;;;;5.13;3.97;;;25.00;66.90;;;;;;4938084;29;20502;-73
2021/05/31 12:10:52;;;;;;;4.20;3.80;;;25.00;66.40;;;;;;4936380;29;21029;-73
2021/05/31 12:13:29;;;;;;;3.73;3.43;;;24.90;65.90;;;;;;4937677;29;20451;-73
2021/05/31 12:15:56;;;;;;;5.30;4.00;;;24.80;65.90;;;;;;4937913;29;20567;-72
2021/05/31 12:18:27;;;;;;;4.27;3.90;;;24.80;66.20;;;;;;4937504;29;20790;-73
2021/05/31 12:20:59;;;;;;;4.00;3.70;;;24.80;66.00;;;;;;4937452;29;20459;-73
2021/05/31 12:23:28;;;;;;;4.23;3.80;;;24.70;66.10;;;;;;4936169;29;20538;-73
2021/05/31 12:26:00;;;;;;;5.80;5.30;;;24.70;66.40;;;;;;4937126;29;20446;-70
2021/05/31 12:28:33;;;;;;;4.10;3.70;;;24.70;66.10;;;;;;4937139;29;20419;-70
2021/05/31 12:31:01;;;;;;;3.77;3.37;;;24.70;66.20;;;;;;4935860;29;20481;-70
2021/05/31 12:33:29;;;;;;;4.37;3.97;;;24.80;66.40;;;;;;4937133;29;20983;-70
2021/05/31 12:35:57;;;;;;;4.10;3.53;;;24.80;66.40;;;;;;4937544;29;20479;-70
2021/05/31 12:38:26;;;;;;;5.60;3.83;;;24.90;66.60;;;;;;4935864;29;20455;-70
2021/05/31 12:40:54;;;;;;;4.00;3.70;;;24.90;66.40;;;;;;4936996;29;20475;-70
2021/05/31 12:43:33;;;;;;;4.33;3.50;;;24.90;66.20;;;;;;4937332;29;20885;-70
2021/05/31 12:46:01;;;;;;;4.20;3.78;;;25.00;65.90;;;;;;4936864;29;20903;-69
2021/05/31 12:48:31;;;;;;;4.37;4.00;;;25.10;64.70;;;;;;4937218;29;20180;-70
2021/05/31 12:51:12;;;;;;;4.10;3.57;;;25.00;64.60;;;;;;4938636;29;20460;-70
2021/05/31 12:53:41;;;;;;;4.43;4.03;;;25.00;65.00;;;;;;4935508;29;20452;-70
2021/05/31 12:56:08;;;;;;;4.00;3.67;;;25.00;64.90;;;;;;4937010;29;20481;-70
2021/05/31 12:59:05;;;;;;;3.53;3.22;;;24.90;64.40;;;;;;4936176;29;20467;-70
2021/05/31 13:01:34;;;;;;;4.00;3.70;;;24.80;63.60;;;;;;4937189;29;20738;-70
2021/05/31 13:04:03;;;;;;;3.80;3.40;;;24.80;64.10;;;;;;4937000;29;20465;-74
2021/05/31 13:06:32;;;;;;;3.80;3.40;;;24.80;64.20;;;;;;4935398;29;20454;-70